sensor_id;sensor_type;location;lat;lon;timestamp;temperature;humidity
11142;DHT22;5625;50.122;19.864;2024-03-08T00:00:55;2.20;99.90
11142;DHT22;5625;50.122;19.864;2024-03-08T00:03:24;2.10;99.90
11142;DHT22;5625;50.122;19.864;2024-03-08T00:05:52;2.10;98.90
11142;DHT22;5625;50.122;19.864;2024-03-08T00:08:20;2.10;83.30
11142;DHT22;5625;50.122;19.864;2024-03-08T00:10:48;2.10;99.90
11142;DHT22;5625;50.122;19.864;2024-03-08T00:13:18;2.10;99.90
11142;DHT22;5625;50.122;19.864;2024-03-08T00:15:47;2.10;99.90
11142;DHT22;5625;50.122;19.864;2024-03-08T00:18:15;2.10;99.90
11142;DHT22;5625;50.122;19.864;2024-03-08T00:20:43;2.00;99.90
11142;DHT22;5625;50.122;19.864;2024-03-08T00:23:11;2.10;99.90
11142;DHT22;5625;50.122;19.864;2024-03-08T00:25:42;2.10;99.90
11142;DHT22;5625;50.122;19.864;2024-03-08T00:28:10;2.10;99.90
11142;DHT22;5625;50.122;19.864;2024-03-08T00:30:43;2.10;99.90
11142;DHT22;5625;50.122;19.864;2024-03-08T00:33:12;2.10;99.90
11142;DHT22;5625;50.122;19.864;2024-03-08T00:35:40;2.10;15.30
11142;DHT22;5625;50.122;19.864;2024-03-08T00:38:10;2.10;99.90
11142;DHT22;5625;50.122;19.864;2024-03-08T00:40:41;2.10;13.80
11142;DHT22;5625;50.122;19.864;2024-03-08T00:43:10;2.10;99.90
11142;DHT22;5625;50.122;19.864;2024-03-08T00:45:38;2.10;1.00
11142;DHT22;5625;50.122;19.864;2024-03-08T00:48:10;2.10;99.90
11142;DHT22;5625;50.122;19.864;2024-03-08T00:50:39;2.10;99.90
11142;DHT22;5625;50.122;19.864;2024-03-08T00:53:10;2.10;99.90
11142;DHT22;5625;50.122;19.864;2024-03-08T00:55:46;2.10;31.60
11142;DHT22;5625;50.122;19.864;2024-03-08T00:58:15;2.10;99.90
11142;DHT22;5625;50.122;19.864;2024-03-08T01:00:46;2.10;79.50
11142;DHT22;5625;50.122;19.864;2024-03-08T01:03:20;2.10;99.90
11142;DHT22;5625;50.122;19.864;2024-03-08T01:05:51;2.10;1.00
11142;DHT22;5625;50.122;19.864;2024-03-08T01:08:22;2.10;1.00
11142;DHT22;5625;50.122;19.864;2024-03-08T01:10:53;2.10;99.90
11142;DHT22;5625;50.122;19.864;2024-03-08T01:13:24;2.10;1.00
11142;DHT22;5625;50.122;19.864;2024-03-08T01:15:54;2.10;99.90
11142;DHT22;5625;50.122;19.864;2024-03-08T01:18:25;2.10;99.90
11142;DHT22;5625;50.122;19.864;2024-03-08T01:20:56;2.10;99.90
11142;DHT22;5625;50.122;19.864;2024-03-08T01:23:24;2.10;99.90
11142;DHT22;5625;50.122;19.864;2024-03-08T01:25:52;2.20;99.90
11142;DHT22;5625;50.122;19.864;2024-03-08T01:28:26;2.10;1.00
11142;DHT22;5625;50.122;19.864;2024-03-08T01:30:54;2.10;99.90
11142;DHT22;5625;50.122;19.864;2024-03-08T01:33:26;2.10;92.40
11142;DHT22;5625;50.122;19.864;2024-03-08T01:35:54;2.10;99.90
11142;DHT22;5625;50.122;19.864;2024-03-08T01:38:23;2.10;99.90
11142;DHT22;5625;50.122;19.864;2024-03-08T01:40:52;2.10;99.90
11142;DHT22;5625;50.122;19.864;2024-03-08T01:43:22;2.10;99.90
11142;DHT22;5625;50.122;19.864;2024-03-08T01:45:54;2.10;99.90
11142;DHT22;5625;50.122;19.864;2024-03-08T01:48:25;2.10;99.90
11142;DHT22;5625;50.122;19.864;2024-03-08T01:50:53;2.10;1.00
11142;DHT22;5625;50.122;19.864;2024-03-08T01:53:22;2.00;1.00
11142;DHT22;5625;50.122;19.864;2024-03-08T01:55:54;2.10;1.00
11142;DHT22;5625;50.122;19.864;2024-03-08T01:58:24;2.10;99.90
11142;DHT22;5625;50.122;19.864;2024-03-08T02:00:56;2.10;1.00
11142;DHT22;5625;50.122;19.864;2024-03-08T02:03:26;2.10;1.00
11142;DHT22;5625;50.122;19.864;2024-03-08T02:05:54;2.10;1.00
11142;DHT22;5625;50.122;19.864;2024-03-08T02:08:22;2.00;1.00
11142;DHT22;5625;50.122;19.864;2024-03-08T02:10:51;2.10;87.20
11142;DHT22;5625;50.122;19.864;2024-03-08T02:13:19;2.10;67.40
11142;DHT22;5625;50.122;19.864;2024-03-08T02:15:51;2.10;1.00
11142;DHT22;5625;50.122;19.864;2024-03-08T02:18:19;2.10;96.20
11142;DHT22;5625;50.122;19.864;2024-03-08T02:20:49;2.10;99.90
11142;DHT22;5625;50.122;19.864;2024-03-08T02:23:18;2.10;1.00
11142;DHT22;5625;50.122;19.864;2024-03-08T02:25:46;2.10;99.90
11142;DHT22;5625;50.122;19.864;2024-03-08T02:28:15;2.10;99.90
11142;DHT22;5625;50.122;19.864;2024-03-08T02:30:45;2.10;99.90
11142;DHT22;5625;50.122;19.864;2024-03-08T02:33:15;2.10;99.90
11142;DHT22;5625;50.122;19.864;2024-03-08T02:35:45;2.10;2.20
11142;DHT22;5625;50.122;19.864;2024-03-08T02:38:15;2.00;1.00
11142;DHT22;5625;50.122;19.864;2024-03-08T02:40:46;2.00;1.00
11142;DHT22;5625;50.122;19.864;2024-03-08T02:43:15;1.90;72.50
11142;DHT22;5625;50.122;19.864;2024-03-08T02:45:44;1.90;99.90
11142;DHT22;5625;50.122;19.864;2024-03-08T02:48:13;1.90;1.00
11142;DHT22;5625;50.122;19.864;2024-03-08T02:50:43;1.90;99.90
11142;DHT22;5625;50.122;19.864;2024-03-08T02:53:17;1.90;99.90
11142;DHT22;5625;50.122;19.864;2024-03-08T02:55:46;1.90;90.10
11142;DHT22;5625;50.122;19.864;2024-03-08T02:58:14;1.90;1.00
11142;DHT22;5625;50.122;19.864;2024-03-08T03:00:42;1.90;57.80
11142;DHT22;5625;50.122;19.864;2024-03-08T03:03:11;2.00;27.30
11142;DHT22;5625;50.122;19.864;2024-03-08T03:05:40;1.90;1.00
11142;DHT22;5625;50.122;19.864;2024-03-08T03:08:16;1.90;1.00
11142;DHT22;5625;50.122;19.864;2024-03-08T03:10:45;2.00;2.20
11142;DHT22;5625;50.122;19.864;2024-03-08T03:13:13;1.90;1.00
11142;DHT22;5625;50.122;19.864;2024-03-08T03:15:41;1.90;43.90
11142;DHT22;5625;50.122;19.864;2024-03-08T03:18:09;2.00;99.90
11142;DHT22;5625;50.122;19.864;2024-03-08T03:20:38;2.00;99.90
11142;DHT22;5625;50.122;19.864;2024-03-08T03:23:09;2.00;1.00
11142;DHT22;5625;50.122;19.864;2024-03-08T03:25:43;2.00;99.90
11142;DHT22;5625;50.122;19.864;2024-03-08T03:28:12;1.90;99.90
11142;DHT22;5625;50.122;19.864;2024-03-08T03:30:45;1.90;99.90
11142;DHT22;5625;50.122;19.864;2024-03-08T03:33:13;2.00;99.90
11142;DHT22;5625;50.122;19.864;2024-03-08T03:35:43;1.90;99.90
11142;DHT22;5625;50.122;19.864;2024-03-08T03:38:12;2.00;99.90
11142;DHT22;5625;50.122;19.864;2024-03-08T03:40:43;1.90;1.00
11142;DHT22;5625;50.122;19.864;2024-03-08T03:43:12;1.90;1.00
11142;DHT22;5625;50.122;19.864;2024-03-08T03:45:41;1.90;1.00
11142;DHT22;5625;50.122;19.864;2024-03-08T03:48:09;1.90;99.90
11142;DHT22;5625;50.122;19.864;2024-03-08T03:50:38;1.90;1.00
11142;DHT22;5625;50.122;19.864;2024-03-08T03:53:07;1.90;1.00
11142;DHT22;5625;50.122;19.864;2024-03-08T03:55:37;1.90;1.00
11142;DHT22;5625;50.122;19.864;2024-03-08T03:58:09;1.80;1.00
11142;DHT22;5625;50.122;19.864;2024-03-08T04:00:38;1.80;99.90
11142;DHT22;5625;50.122;19.864;2024-03-08T04:03:07;1.80;1.00
11142;DHT22;5625;50.122;19.864;2024-03-08T04:05:36;1.80;99.90
11142;DHT22;5625;50.122;19.864;2024-03-08T04:08:04;1.80;99.90
11142;DHT22;5625;50.122;19.864;2024-03-08T04:10:33;1.80;52.00
11142;DHT22;5625;50.122;19.864;2024-03-08T04:13:01;1.80;68.30
11142;DHT22;5625;50.122;19.864;2024-03-08T04:15:30;1.80;99.90
11142;DHT22;5625;50.122;19.864;2024-03-08T04:17:59;1.70;99.90
11142;DHT22;5625;50.122;19.864;2024-03-08T04:20:29;1.80;99.90
11142;DHT22;5625;50.122;19.864;2024-03-08T04:22:57;1.80;1.00
11142;DHT22;5625;50.122;19.864;2024-03-08T04:25:25;1.80;1.00
11142;DHT22;5625;50.122;19.864;2024-03-08T04:27:54;1.80;1.00
11142;DHT22;5625;50.122;19.864;2024-03-08T04:30:22;1.80;1.00
11142;DHT22;5625;50.122;19.864;2024-03-08T04:32:52;1.90;1.00
11142;DHT22;5625;50.122;19.864;2024-03-08T04:35:20;1.80;1.00
11142;DHT22;5625;50.122;19.864;2024-03-08T04:37:48;1.80;1.00
11142;DHT22;5625;50.122;19.864;2024-03-08T04:40:16;1.80;1.00
11142;DHT22;5625;50.122;19.864;2024-03-08T04:42:46;1.80;19.50
11142;DHT22;5625;50.122;19.864;2024-03-08T04:45:17;1.80;65.40
11142;DHT22;5625;50.122;19.864;2024-03-08T04:47:46;1.80;99.90
11142;DHT22;5625;50.122;19.864;2024-03-08T04:50:15;1.80;99.90
11142;DHT22;5625;50.122;19.864;2024-03-08T04:52:44;1.80;99.90
11142;DHT22;5625;50.122;19.864;2024-03-08T04:55:12;1.80;99.90
11142;DHT22;5625;50.122;19.864;2024-03-08T04:57:42;1.70;99.90
11142;DHT22;5625;50.122;19.864;2024-03-08T05:00:11;1.80;99.90
11142;DHT22;5625;50.122;19.864;2024-03-08T05:02:40;1.70;60.40
11142;DHT22;5625;50.122;19.864;2024-03-08T05:05:08;1.70;1.00
11142;DHT22;5625;50.122;19.864;2024-03-08T05:07:40;1.70;64.70
11142;DHT22;5625;50.122;19.864;2024-03-08T05:10:08;1.70;1.00
11142;DHT22;5625;50.122;19.864;2024-03-08T05:12:36;1.70;13.30
11142;DHT22;5625;50.122;19.864;2024-03-08T05:15:06;1.70;1.00
11142;DHT22;5625;50.122;19.864;2024-03-08T05:17:35;1.70;99.90
11142;DHT22;5625;50.122;19.864;2024-03-08T05:20:04;1.70;99.90
11142;DHT22;5625;50.122;19.864;2024-03-08T05:22:34;1.70;99.90
11142;DHT22;5625;50.122;19.864;2024-03-08T05:25:05;1.60;99.90
11142;DHT22;5625;50.122;19.864;2024-03-08T05:27:36;1.60;99.90
11142;DHT22;5625;50.122;19.864;2024-03-08T05:30:05;1.60;99.90
11142;DHT22;5625;50.122;19.864;2024-03-08T05:32:34;1.60;89.10
11142;DHT22;5625;50.122;19.864;2024-03-08T05:35:03;1.60;99.90
11142;DHT22;5625;50.122;19.864;2024-03-08T05:37:34;1.60;99.90
11142;DHT22;5625;50.122;19.864;2024-03-08T05:40:04;1.60;99.90
11142;DHT22;5625;50.122;19.864;2024-03-08T05:42:42;1.60;99.90
11142;DHT22;5625;50.122;19.864;2024-03-08T05:45:10;1.60;99.90
11142;DHT22;5625;50.122;19.864;2024-03-08T05:47:39;1.60;99.90
11142;DHT22;5625;50.122;19.864;2024-03-08T05:50:08;1.70;99.90
11142;DHT22;5625;50.122;19.864;2024-03-08T05:52:38;1.70;99.90
11142;DHT22;5625;50.122;19.864;2024-03-08T05:55:08;1.70;99.90
11142;DHT22;5625;50.122;19.864;2024-03-08T05:57:37;1.60;1.00
11142;DHT22;5625;50.122;19.864;2024-03-08T06:00:08;1.70;1.00
11142;DHT22;5625;50.122;19.864;2024-03-08T06:02:37;1.60;99.90
11142;DHT22;5625;50.122;19.864;2024-03-08T06:05:09;1.60;1.00
11142;DHT22;5625;50.122;19.864;2024-03-08T06:07:42;1.60;1.00
11142;DHT22;5625;50.122;19.864;2024-03-08T06:10:11;1.60;1.00
11142;DHT22;5625;50.122;19.864;2024-03-08T06:12:40;1.60;1.00
11142;DHT22;5625;50.122;19.864;2024-03-08T06:15:09;1.60;1.00
11142;DHT22;5625;50.122;19.864;2024-03-08T06:17:41;1.60;1.00
11142;DHT22;5625;50.122;19.864;2024-03-08T06:20:11;1.60;1.00
11142;DHT22;5625;50.122;19.864;2024-03-08T06:22:40;1.60;1.00
11142;DHT22;5625;50.122;19.864;2024-03-08T06:25:10;1.60;1.00
11142;DHT22;5625;50.122;19.864;2024-03-08T06:27:40;1.60;1.00
11142;DHT22;5625;50.122;19.864;2024-03-08T06:30:10;1.60;1.00
11142;DHT22;5625;50.122;19.864;2024-03-08T06:32:39;1.60;1.00
11142;DHT22;5625;50.122;19.864;2024-03-08T06:35:09;1.60;1.00
11142;DHT22;5625;50.122;19.864;2024-03-08T06:37:38;1.70;40.10
11142;DHT22;5625;50.122;19.864;2024-03-08T06:40:07;1.70;50.10
11142;DHT22;5625;50.122;19.864;2024-03-08T06:42:42;1.70;72.70
11142;DHT22;5625;50.122;19.864;2024-03-08T06:45:10;1.60;1.00
11142;DHT22;5625;50.122;19.864;2024-03-08T06:47:39;1.60;59.20
11142;DHT22;5625;50.122;19.864;2024-03-08T06:50:12;1.60;22.70
11142;DHT22;5625;50.122;19.864;2024-03-08T06:52:42;1.60;59.20
11142;DHT22;5625;50.122;19.864;2024-03-08T06:55:11;1.60;1.00
11142;DHT22;5625;50.122;19.864;2024-03-08T06:57:39;1.60;1.00
11142;DHT22;5625;50.122;19.864;2024-03-08T07:00:11;1.60;1.00
11142;DHT22;5625;50.122;19.864;2024-03-08T07:02:45;1.50;1.00
11142;DHT22;5625;50.122;19.864;2024-03-08T07:05:15;1.60;1.00
11142;DHT22;5625;50.122;19.864;2024-03-08T07:07:43;1.60;1.00
11142;DHT22;5625;50.122;19.864;2024-03-08T07:10:11;1.60;1.00
11142;DHT22;5625;50.122;19.864;2024-03-08T07:12:43;1.50;1.00
11142;DHT22;5625;50.122;19.864;2024-03-08T07:15:12;1.60;1.00
11142;DHT22;5625;50.122;19.864;2024-03-08T07:17:42;1.50;1.00
11142;DHT22;5625;50.122;19.864;2024-03-08T07:20:12;1.50;1.00
11142;DHT22;5625;50.122;19.864;2024-03-08T07:22:41;1.50;1.00
11142;DHT22;5625;50.122;19.864;2024-03-08T07:25:13;1.60;24.40
11142;DHT22;5625;50.122;19.864;2024-03-08T07:27:51;1.60;46.70
11142;DHT22;5625;50.122;19.864;2024-03-08T07:30:23;1.70;1.00
11142;DHT22;5625;50.122;19.864;2024-03-08T07:33:10;1.70;1.00
11142;DHT22;5625;50.122;19.864;2024-03-08T07:35:41;1.70;99.90
11142;DHT22;5625;50.122;19.864;2024-03-08T07:38:11;1.70;99.90
11142;DHT22;5625;50.122;19.864;2024-03-08T07:40:39;1.70;99.90
11142;DHT22;5625;50.122;19.864;2024-03-08T07:43:11;1.80;99.90
11142;DHT22;5625;50.122;19.864;2024-03-08T07:45:41;1.70;99.90
11142;DHT22;5625;50.122;19.864;2024-03-08T07:48:09;1.70;94.10
11142;DHT22;5625;50.122;19.864;2024-03-08T07:50:38;1.70;92.60
11142;DHT22;5625;50.122;19.864;2024-03-08T07:53:07;1.70;1.00
11142;DHT22;5625;50.122;19.864;2024-03-08T07:55:36;1.70;99.90
11142;DHT22;5625;50.122;19.864;2024-03-08T07:58:06;1.70;1.00
11142;DHT22;5625;50.122;19.864;2024-03-08T08:00:37;1.70;1.00
11142;DHT22;5625;50.122;19.864;2024-03-08T08:03:07;1.80;55.10
11142;DHT22;5625;50.122;19.864;2024-03-08T08:05:35;1.80;1.00
11142;DHT22;5625;50.122;19.864;2024-03-08T08:08:07;1.80;99.90
11142;DHT22;5625;50.122;19.864;2024-03-08T08:10:38;1.90;99.90
11142;DHT22;5625;50.122;19.864;2024-03-08T08:13:06;1.90;99.90
11142;DHT22;5625;50.122;19.864;2024-03-08T08:15:34;1.90;99.90
11142;DHT22;5625;50.122;19.864;2024-03-08T08:18:03;2.00;7.20
11142;DHT22;5625;50.122;19.864;2024-03-08T08:20:36;2.00;67.50
11142;DHT22;5625;50.122;19.864;2024-03-08T08:23:05;2.10;67.50
11142;DHT22;5625;50.122;19.864;2024-03-08T08:25:33;2.10;1.00
11142;DHT22;5625;50.122;19.864;2024-03-08T08:28:02;2.20;1.20
11142;DHT22;5625;50.122;19.864;2024-03-08T08:30:31;2.30;2.80
11142;DHT22;5625;50.122;19.864;2024-03-08T08:33:00;2.30;99.90
11142;DHT22;5625;50.122;19.864;2024-03-08T08:35:29;2.30;60.50
11142;DHT22;5625;50.122;19.864;2024-03-08T08:37:59;2.30;1.00
11142;DHT22;5625;50.122;19.864;2024-03-08T08:40:28;2.40;99.90
11142;DHT22;5625;50.122;19.864;2024-03-08T08:42:57;2.40;99.90
11142;DHT22;5625;50.122;19.864;2024-03-08T08:45:26;2.40;99.90
11142;DHT22;5625;50.122;19.864;2024-03-08T08:47:55;2.50;99.90
11142;DHT22;5625;50.122;19.864;2024-03-08T08:50:23;2.60;99.90
11142;DHT22;5625;50.122;19.864;2024-03-08T08:52:52;2.60;99.90
11142;DHT22;5625;50.122;19.864;2024-03-08T08:55:22;2.70;1.00
11142;DHT22;5625;50.122;19.864;2024-03-08T08:57:53;2.80;99.90
11142;DHT22;5625;50.122;19.864;2024-03-08T09:00:23;2.80;99.90
11142;DHT22;5625;50.122;19.864;2024-03-08T09:02:55;2.80;99.90
11142;DHT22;5625;50.122;19.864;2024-03-08T09:05:25;2.90;99.90
11142;DHT22;5625;50.122;19.864;2024-03-08T09:07:54;2.90;99.90
11142;DHT22;5625;50.122;19.864;2024-03-08T09:10:26;3.10;99.90
11142;DHT22;5625;50.122;19.864;2024-03-08T09:12:57;3.30;1.00
11142;DHT22;5625;50.122;19.864;2024-03-08T09:15:27;3.40;1.00
11142;DHT22;5625;50.122;19.864;2024-03-08T09:17:55;3.20;99.90
11142;DHT22;5625;50.122;19.864;2024-03-08T09:20:24;3.10;99.90
11142;DHT22;5625;50.122;19.864;2024-03-08T09:22:52;3.20;99.90
11142;DHT22;5625;50.122;19.864;2024-03-08T09:25:22;3.30;99.90
11142;DHT22;5625;50.122;19.864;2024-03-08T09:27:51;3.70;1.00
11142;DHT22;5625;50.122;19.864;2024-03-08T09:30:21;4.20;32.90
11142;DHT22;5625;50.122;19.864;2024-03-08T09:32:50;4.10;1.00
11142;DHT22;5625;50.122;19.864;2024-03-08T09:35:20;3.90;1.00
11142;DHT22;5625;50.122;19.864;2024-03-08T09:37:48;4.50;1.00
11142;DHT22;5625;50.122;19.864;2024-03-08T09:40:18;5.10;1.00
11142;DHT22;5625;50.122;19.864;2024-03-08T09:42:48;5.50;99.90
11142;DHT22;5625;50.122;19.864;2024-03-08T09:45:20;5.90;99.90
11142;DHT22;5625;50.122;19.864;2024-03-08T09:47:53;6.00;99.90
11142;DHT22;5625;50.122;19.864;2024-03-08T09:50:22;6.00;99.90
11142;DHT22;5625;50.122;19.864;2024-03-08T09:52:50;6.30;99.90
11142;DHT22;5625;50.122;19.864;2024-03-08T09:55:18;6.70;99.90
11142;DHT22;5625;50.122;19.864;2024-03-08T09:57:51;7.20;99.90
11142;DHT22;5625;50.122;19.864;2024-03-08T10:00:39;7.60;92.20
11142;DHT22;5625;50.122;19.864;2024-03-08T10:03:08;8.20;69.10
11142;DHT22;5625;50.122;19.864;2024-03-08T10:05:41;8.20;27.70
11142;DHT22;5625;50.122;19.864;2024-03-08T10:08:11;8.50;14.90
11142;DHT22;5625;50.122;19.864;2024-03-08T10:10:40;8.70;1.80
11142;DHT22;5625;50.122;19.864;2024-03-08T10:13:10;8.60;1.00
11142;DHT22;5625;50.122;19.864;2024-03-08T10:15:41;8.40;1.00
11142;DHT22;5625;50.122;19.864;2024-03-08T10:18:09;8.70;1.00
11142;DHT22;5625;50.122;19.864;2024-03-08T10:20:38;8.90;1.00
11142;DHT22;5625;50.122;19.864;2024-03-08T10:23:06;9.40;1.00
11142;DHT22;5625;50.122;19.864;2024-03-08T10:25:38;9.50;1.00
11142;DHT22;5625;50.122;19.864;2024-03-08T10:28:06;9.10;1.00
11142;DHT22;5625;50.122;19.864;2024-03-08T10:30:34;8.70;1.00
11142;DHT22;5625;50.122;19.864;2024-03-08T10:33:04;9.00;1.00
11142;DHT22;5625;50.122;19.864;2024-03-08T10:35:33;9.10;1.00
11142;DHT22;5625;50.122;19.864;2024-03-08T10:38:04;9.00;1.00
11142;DHT22;5625;50.122;19.864;2024-03-08T10:40:35;8.80;1.00
11142;DHT22;5625;50.122;19.864;2024-03-08T10:43:05;8.50;1.00
11142;DHT22;5625;50.122;19.864;2024-03-08T10:45:36;8.60;1.00
11142;DHT22;5625;50.122;19.864;2024-03-08T10:48:14;8.70;1.00
11142;DHT22;5625;50.122;19.864;2024-03-08T10:50:44;8.50;1.00
11142;DHT22;5625;50.122;19.864;2024-03-08T10:53:14;8.30;1.00
11142;DHT22;5625;50.122;19.864;2024-03-08T10:55:44;8.10;1.00
11142;DHT22;5625;50.122;19.864;2024-03-08T10:58:12;8.00;1.00
11142;DHT22;5625;50.122;19.864;2024-03-08T11:00:40;7.90;1.00
11142;DHT22;5625;50.122;19.864;2024-03-08T11:03:45;7.70;1.00
11142;DHT22;5625;50.122;19.864;2024-03-08T11:06:17;7.60;1.00
11142;DHT22;5625;50.122;19.864;2024-03-08T11:08:46;7.60;1.00
11142;DHT22;5625;50.122;19.864;2024-03-08T11:11:24;7.50;1.00
11142;DHT22;5625;50.122;19.864;2024-03-08T11:14:01;7.40;1.00
11142;DHT22;5625;50.122;19.864;2024-03-08T11:16:39;7.50;1.00
11142;DHT22;5625;50.122;19.864;2024-03-08T11:19:26;7.40;1.00
11142;DHT22;5625;50.122;19.864;2024-03-08T11:21:59;7.30;1.00
11142;DHT22;5625;50.122;19.864;2024-03-08T11:24:28;7.30;1.00
11142;DHT22;5625;50.122;19.864;2024-03-08T11:27:05;7.20;1.00
11142;DHT22;5625;50.122;19.864;2024-03-08T11:29:37;7.30;1.00
11142;DHT22;5625;50.122;19.864;2024-03-08T11:32:11;7.30;1.00
11142;DHT22;5625;50.122;19.864;2024-03-08T11:34:42;7.30;1.00
11142;DHT22;5625;50.122;19.864;2024-03-08T11:37:12;7.40;1.00
11142;DHT22;5625;50.122;19.864;2024-03-08T11:39:41;7.50;1.00
11142;DHT22;5625;50.122;19.864;2024-03-08T11:42:14;7.60;1.00
11142;DHT22;5625;50.122;19.864;2024-03-08T11:44:42;7.70;1.00
11142;DHT22;5625;50.122;19.864;2024-03-08T11:47:11;7.90;1.00
11142;DHT22;5625;50.122;19.864;2024-03-08T11:49:41;8.00;1.00
11142;DHT22;5625;50.122;19.864;2024-03-08T11:52:11;8.10;1.00
11142;DHT22;5625;50.122;19.864;2024-03-08T11:54:41;8.20;1.00
11142;DHT22;5625;50.122;19.864;2024-03-08T11:57:10;8.10;1.00
11142;DHT22;5625;50.122;19.864;2024-03-08T11:59:39;8.10;1.00
11142;DHT22;5625;50.122;19.864;2024-03-08T12:02:07;8.20;1.00
11142;DHT22;5625;50.122;19.864;2024-03-08T12:04:38;8.30;1.00
11142;DHT22;5625;50.122;19.864;2024-03-08T12:07:10;8.40;1.00
11142;DHT22;5625;50.122;19.864;2024-03-08T12:09:39;8.60;1.00
11142;DHT22;5625;50.122;19.864;2024-03-08T12:12:07;8.50;1.00
11142;DHT22;5625;50.122;19.864;2024-03-08T12:14:38;8.50;1.00
11142;DHT22;5625;50.122;19.864;2024-03-08T12:17:08;8.70;1.00
11142;DHT22;5625;50.122;19.864;2024-03-08T12:19:39;8.70;1.00
11142;DHT22;5625;50.122;19.864;2024-03-08T12:22:09;8.60;1.00
11142;DHT22;5625;50.122;19.864;2024-03-08T12:24:37;8.50;1.00
11142;DHT22;5625;50.122;19.864;2024-03-08T12:27:23;8.60;1.00
11142;DHT22;5625;50.122;19.864;2024-03-08T12:29:55;8.50;1.00
11142;DHT22;5625;50.122;19.864;2024-03-08T12:32:23;8.90;1.00
11142;DHT22;5625;50.122;19.864;2024-03-08T12:34:52;8.80;1.00
11142;DHT22;5625;50.122;19.864;2024-03-08T12:37:22;8.70;1.00
11142;DHT22;5625;50.122;19.864;2024-03-08T12:39:51;8.60;1.00
11142;DHT22;5625;50.122;19.864;2024-03-08T12:42:22;8.90;1.00
11142;DHT22;5625;50.122;19.864;2024-03-08T12:44:52;9.00;1.00
11142;DHT22;5625;50.122;19.864;2024-03-08T12:47:20;9.10;1.00
11142;DHT22;5625;50.122;19.864;2024-03-08T12:49:48;9.00;1.00
11142;DHT22;5625;50.122;19.864;2024-03-08T12:52:16;9.00;1.00
11142;DHT22;5625;50.122;19.864;2024-03-08T12:54:46;9.00;1.00
11142;DHT22;5625;50.122;19.864;2024-03-08T12:57:16;8.90;1.00
11142;DHT22;5625;50.122;19.864;2024-03-08T12:59:44;9.10;1.00
11142;DHT22;5625;50.122;19.864;2024-03-08T13:02:12;9.10;1.00
11142;DHT22;5625;50.122;19.864;2024-03-08T13:04:41;9.00;1.00
11142;DHT22;5625;50.122;19.864;2024-03-08T13:07:09;9.00;1.00
11142;DHT22;5625;50.122;19.864;2024-03-08T13:09:37;9.00;1.00
11142;DHT22;5625;50.122;19.864;2024-03-08T13:12:07;9.10;1.00
11142;DHT22;5625;50.122;19.864;2024-03-08T13:14:36;9.30;1.00
11142;DHT22;5625;50.122;19.864;2024-03-08T13:17:05;9.20;1.00
11142;DHT22;5625;50.122;19.864;2024-03-08T13:19:37;9.10;1.00
11142;DHT22;5625;50.122;19.864;2024-03-08T13:22:06;8.90;1.00
11142;DHT22;5625;50.122;19.864;2024-03-08T13:24:34;8.70;1.00
11142;DHT22;5625;50.122;19.864;2024-03-08T13:27:02;8.60;1.00
11142;DHT22;5625;50.122;19.864;2024-03-08T13:29:45;8.40;1.00
11142;DHT22;5625;50.122;19.864;2024-03-08T13:32:15;8.30;1.00
11142;DHT22;5625;50.122;19.864;2024-03-08T13:34:44;8.30;1.00
11142;DHT22;5625;50.122;19.864;2024-03-08T13:37:14;8.20;1.00
11142;DHT22;5625;50.122;19.864;2024-03-08T13:39:43;8.10;1.00
11142;DHT22;5625;50.122;19.864;2024-03-08T13:42:12;8.00;1.00
11142;DHT22;5625;50.122;19.864;2024-03-08T13:44:47;8.00;1.00
11142;DHT22;5625;50.122;19.864;2024-03-08T13:47:15;7.90;1.00
11142;DHT22;5625;50.122;19.864;2024-03-08T13:49:44;7.70;1.00
11142;DHT22;5625;50.122;19.864;2024-03-08T13:52:12;7.70;1.00
11142;DHT22;5625;50.122;19.864;2024-03-08T13:54:42;7.60;1.00
11142;DHT22;5625;50.122;19.864;2024-03-08T13:57:10;7.60;1.00
11142;DHT22;5625;50.122;19.864;2024-03-08T13:59:38;7.60;1.00
11142;DHT22;5625;50.122;19.864;2024-03-08T14:02:08;7.60;1.00
11142;DHT22;5625;50.122;19.864;2024-03-08T14:04:41;7.50;1.00
11142;DHT22;5625;50.122;19.864;2024-03-08T14:07:09;7.50;12.60
11142;DHT22;5625;50.122;19.864;2024-03-08T14:09:37;7.50;26.40
11142;DHT22;5625;50.122;19.864;2024-03-08T14:12:10;7.50;51.70
11142;DHT22;5625;50.122;19.864;2024-03-08T14:14:38;7.50;53.80
11142;DHT22;5625;50.122;19.864;2024-03-08T14:17:07;7.40;59.60
11142;DHT22;5625;50.122;19.864;2024-03-08T14:19:36;7.40;59.40
11142;DHT22;5625;50.122;19.864;2024-03-08T14:22:06;7.30;60.10
11142;DHT22;5625;50.122;19.864;2024-03-08T14:24:34;7.30;67.60
11142;DHT22;5625;50.122;19.864;2024-03-08T14:27:02;7.20;78.70
11142;DHT22;5625;50.122;19.864;2024-03-08T14:29:30;7.20;87.80
11142;DHT22;5625;50.122;19.864;2024-03-08T14:31:59;7.20;92.10
11142;DHT22;5625;50.122;19.864;2024-03-08T14:34:31;7.20;98.20
11142;DHT22;5625;50.122;19.864;2024-03-08T14:37:00;7.10;99.90
11142;DHT22;5625;50.122;19.864;2024-03-08T14:39:59;7.20;99.90
11142;DHT22;5625;50.122;19.864;2024-03-08T14:42:34;7.20;99.90
11142;DHT22;5625;50.122;19.864;2024-03-08T14:45:03;7.10;99.90
11142;DHT22;5625;50.122;19.864;2024-03-08T14:47:32;7.20;99.90
11142;DHT22;5625;50.122;19.864;2024-03-08T14:50:03;7.20;99.90
11142;DHT22;5625;50.122;19.864;2024-03-08T14:52:35;7.20;99.90
11142;DHT22;5625;50.122;19.864;2024-03-08T14:55:03;7.10;99.90
11142;DHT22;5625;50.122;19.864;2024-03-08T14:57:33;7.10;99.90
11142;DHT22;5625;50.122;19.864;2024-03-08T15:00:02;7.10;99.90
11142;DHT22;5625;50.122;19.864;2024-03-08T15:02:33;7.10;99.90
11142;DHT22;5625;50.122;19.864;2024-03-08T15:05:05;7.10;99.90
11142;DHT22;5625;50.122;19.864;2024-03-08T15:07:36;7.10;99.90
11142;DHT22;5625;50.122;19.864;2024-03-08T15:10:06;7.10;99.90
11142;DHT22;5625;50.122;19.864;2024-03-08T15:12:38;7.10;99.90
11142;DHT22;5625;50.122;19.864;2024-03-08T15:15:08;7.00;99.90
11142;DHT22;5625;50.122;19.864;2024-03-08T15:17:37;7.00;99.90
11142;DHT22;5625;50.122;19.864;2024-03-08T15:20:09;7.00;99.90
11142;DHT22;5625;50.122;19.864;2024-03-08T15:22:43;7.10;99.90
11142;DHT22;5625;50.122;19.864;2024-03-08T15:25:11;7.00;99.90
11142;DHT22;5625;50.122;19.864;2024-03-08T15:27:43;7.00;99.90
11142;DHT22;5625;50.122;19.864;2024-03-08T15:30:12;7.00;99.90
11142;DHT22;5625;50.122;19.864;2024-03-08T15:32:44;6.90;99.90
11142;DHT22;5625;50.122;19.864;2024-03-08T15:35:15;6.90;99.90
11142;DHT22;5625;50.122;19.864;2024-03-08T15:37:44;6.90;99.90
11142;DHT22;5625;50.122;19.864;2024-03-08T15:40:13;6.90;99.90
11142;DHT22;5625;50.122;19.864;2024-03-08T15:42:55;6.90;99.90
11142;DHT22;5625;50.122;19.864;2024-03-08T15:45:23;6.90;99.90
11142;DHT22;5625;50.122;19.864;2024-03-08T15:47:53;6.90;99.90
11142;DHT22;5625;50.122;19.864;2024-03-08T15:50:23;6.80;99.90
11142;DHT22;5625;50.122;19.864;2024-03-08T15:52:51;6.70;99.90
11142;DHT22;5625;50.122;19.864;2024-03-08T15:55:21;6.70;99.90
11142;DHT22;5625;50.122;19.864;2024-03-08T15:57:51;6.70;99.90
11142;DHT22;5625;50.122;19.864;2024-03-08T16:00:21;6.60;99.90
11142;DHT22;5625;50.122;19.864;2024-03-08T16:03:01;6.60;99.90
11142;DHT22;5625;50.122;19.864;2024-03-08T16:05:35;6.50;99.90
11142;DHT22;5625;50.122;19.864;2024-03-08T16:08:03;6.50;99.90
11142;DHT22;5625;50.122;19.864;2024-03-08T16:10:32;6.40;99.90